sensor_id;sensor_type;location;lat;lon;timestamp;pressure;altitude;pressure_sealevel;temperature;humidity
16331;BME280;8275;48.206;16.340;2022-10-22T00:01:42;99212.38;;;17.14;38.35
16331;BME280;8275;48.206;16.340;2022-10-22T00:04:11;99207.97;;;17.13;38.29
16331;BME280;8275;48.206;16.340;2022-10-22T00:06:41;99215.16;;;17.14;38.31
16331;BME280;8275;48.206;16.340;2022-10-22T00:09:11;99213.53;;;17.13;38.35
16331;BME280;8275;48.206;16.340;2022-10-22T00:11:40;99201.31;;;17.14;38.37
16331;BME280;8275;48.206;16.340;2022-10-22T00:14:09;99206.84;;;17.14;38.19
16331;BME280;8275;48.206;16.340;2022-10-22T00:16:38;99203.75;;;17.15;38.21
16331;BME280;8275;48.206;16.340;2022-10-22T00:19:07;99204.91;;;17.14;38.35
16331;BME280;8275;48.206;16.340;2022-10-22T00:21:37;99199.38;;;17.14;38.17
16331;BME280;8275;48.206;16.340;2022-10-22T00:24:07;99196.59;;;17.14;38.21
16331;BME280;8275;48.206;16.340;2022-10-22T00:26:35;99191.38;;;17.13;38.11
16331;BME280;8275;48.206;16.340;2022-10-22T00:29:05;99199.97;;;17.11;38.38
16331;BME280;8275;48.206;16.340;2022-10-22T00:31:34;99198.63;;;17.09;38.28
16331;BME280;8275;48.206;16.340;2022-10-22T00:34:03;99188.16;;;17.06;38.40
16331;BME280;8275;48.206;16.340;2022-10-22T00:36:31;99176.84;;;17.02;38.33
16331;BME280;8275;48.206;16.340;2022-10-22T00:38:59;99169.44;;;16.98;38.27
16331;BME280;8275;48.206;16.340;2022-10-22T00:41:29;99173.63;;;16.95;38.42
16331;BME280;8275;48.206;16.340;2022-10-22T00:44:00;99181.75;;;16.92;38.25
16331;BME280;8275;48.206;16.340;2022-10-22T00:46:29;99177.09;;;16.87;38.36
16331;BME280;8275;48.206;16.340;2022-10-22T00:49:01;99178.78;;;16.83;38.20
16331;BME280;8275;48.206;16.340;2022-10-22T00:51:33;99169.47;;;16.79;38.49
16331;BME280;8275;48.206;16.340;2022-10-22T00:54:04;99166.25;;;16.72;38.28
16331;BME280;8275;48.206;16.340;2022-10-22T00:56:36;99166.84;;;16.69;38.36
16331;BME280;8275;48.206;16.340;2022-10-22T00:59:04;99173.28;;;16.64;38.41
16331;BME280;8275;48.206;16.340;2022-10-22T01:01:38;99167.00;;;16.59;38.48
16331;BME280;8275;48.206;16.340;2022-10-22T01:04:06;99164.28;;;16.54;38.67
16331;BME280;8275;48.206;16.340;2022-10-22T01:06:35;99168.47;;;16.51;38.71
16331;BME280;8275;48.206;16.340;2022-10-22T01:09:15;99170.47;;;16.46;38.61
16331;BME280;8275;48.206;16.340;2022-10-22T01:11:54;99173.28;;;16.41;38.85
16331;BME280;8275;48.206;16.340;2022-10-22T01:14:32;99170.81;;;16.39;38.79
16331;BME280;8275;48.206;16.340;2022-10-22T01:17:07;99186.59;;;16.39;38.79
16331;BME280;8275;48.206;16.340;2022-10-22T01:19:53;99197.94;;;16.37;38.99
16331;BME280;8275;48.206;16.340;2022-10-22T01:22:31;99178.31;;;16.39;38.88
16331;BME280;8275;48.206;16.340;2022-10-22T01:25:07;99167.25;;;16.39;39.07
16331;BME280;8275;48.206;16.340;2022-10-22T01:27:50;99156.97;;;16.39;38.93
16331;BME280;8275;48.206;16.340;2022-10-22T01:30:22;99155.88;;;16.40;38.90
16331;BME280;8275;48.206;16.340;2022-10-22T01:32:53;99155.56;;;16.42;38.89
16331;BME280;8275;48.206;16.340;2022-10-22T01:35:27;99154.47;;;16.43;39.02
16331;BME280;8275;48.206;16.340;2022-10-22T01:38:00;99148.63;;;16.44;38.94
16331;BME280;8275;48.206;16.340;2022-10-22T01:40:30;99148.34;;;16.46;39.11
16331;BME280;8275;48.206;16.340;2022-10-22T01:43:02;99143.09;;;16.44;39.07
16331;BME280;8275;48.206;16.340;2022-10-22T01:45:35;99144.50;;;16.42;38.89
16331;BME280;8275;48.206;16.340;2022-10-22T01:48:19;99136.00;;;16.38;39.01
16331;BME280;8275;48.206;16.340;2022-10-22T01:51:17;99134.13;;;16.34;39.01
16331;BME280;8275;48.206;16.340;2022-10-22T01:53:54;99115.38;;;16.31;38.98
16331;BME280;8275;48.206;16.340;2022-10-22T01:56:43;99115.44;;;16.26;39.02
16331;BME280;8275;48.206;16.340;2022-10-22T01:59:23;99125.13;;;16.23;39.11
16331;BME280;8275;48.206;16.340;2022-10-22T02:02:04;99121.06;;;16.21;39.12
16331;BME280;8275;48.206;16.340;2022-10-22T02:04:42;99119.69;;;16.18;39.22
16331;BME280;8275;48.206;16.340;2022-10-22T02:07:18;99104.22;;;16.17;39.31
16331;BME280;8275;48.206;16.340;2022-10-22T02:09:48;99093.75;;;16.14;39.30
16331;BME280;8275;48.206;16.340;2022-10-22T02:12:19;99109.53;;;16.13;39.27
16331;BME280;8275;48.206;16.340;2022-10-22T02:14:50;99116.16;;;16.12;39.36
16331;BME280;8275;48.206;16.340;2022-10-22T02:17:21;99128.88;;;16.13;39.34
16331;BME280;8275;48.206;16.340;2022-10-22T02:19:55;99124.47;;;16.12;39.30
16331;BME280;8275;48.206;16.340;2022-10-22T02:22:25;99120.59;;;16.13;39.33
16331;BME280;8275;48.206;16.340;2022-10-22T02:24:55;99126.13;;;16.13;39.37
16331;BME280;8275;48.206;16.340;2022-10-22T02:27:28;99119.44;;;16.14;39.35
16331;BME280;8275;48.206;16.340;2022-10-22T02:30:03;99125.81;;;16.15;39.28
16331;BME280;8275;48.206;16.340;2022-10-22T02:32:38;99140.97;;;16.17;39.29
16331;BME280;8275;48.206;16.340;2022-10-22T02:35:14;99128.25;;;16.16;39.34
16331;BME280;8275;48.206;16.340;2022-10-22T02:37:44;99114.16;;;16.18;39.25
16331;BME280;8275;48.206;16.340;2022-10-22T02:40:13;99107.81;;;16.17;39.56
16331;BME280;8275;48.206;16.340;2022-10-22T02:42:41;99110.88;;;16.16;39.47
16331;BME280;8275;48.206;16.340;2022-10-22T02:45:10;99106.47;;;16.15;39.48
16331;BME280;8275;48.206;16.340;2022-10-22T02:47:40;99108.69;;;16.13;39.32
16331;BME280;8275;48.206;16.340;2022-10-22T02:50:08;99105.69;;;16.09;39.19
16331;BME280;8275;48.206;16.340;2022-10-22T02:52:37;99110.69;;;16.07;39.28
16331;BME280;8275;48.206;16.340;2022-10-22T02:55:07;99091.41;;;16.02;39.38
16331;BME280;8275;48.206;16.340;2022-10-22T02:57:36;99105.00;;;15.99;39.24
16331;BME280;8275;48.206;16.340;2022-10-22T03:00:14;99099.84;;;15.92;39.52
16331;BME280;8275;48.206;16.340;2022-10-22T03:02:44;99102.09;;;15.90;39.48
16331;BME280;8275;48.206;16.340;2022-10-22T03:05:12;99110.13;;;15.87;39.53
16331;BME280;8275;48.206;16.340;2022-10-22T03:07:41;99103.25;;;15.84;39.67
16331;BME280;8275;48.206;16.340;2022-10-22T03:10:09;99101.91;;;15.82;39.56
16331;BME280;8275;48.206;16.340;2022-10-22T03:12:38;99100.00;;;15.77;39.58
16331;BME280;8275;48.206;16.340;2022-10-22T03:15:07;99105.84;;;15.76;39.59
16331;BME280;8275;48.206;16.340;2022-10-22T03:17:35;99110.53;;;15.75;39.69
16331;BME280;8275;48.206;16.340;2022-10-22T03:20:07;99107.78;;;15.75;39.81
16331;BME280;8275;48.206;16.340;2022-10-22T03:22:38;99107.50;;;15.77;39.78
16331;BME280;8275;48.206;16.340;2022-10-22T03:25:12;99108.56;;;15.81;39.77
16331;BME280;8275;48.206;16.340;2022-10-22T03:27:41;99100.22;;;15.86;39.89
16331;BME280;8275;48.206;16.340;2022-10-22T03:30:10;99095.72;;;15.90;39.85
16331;BME280;8275;48.206;16.340;2022-10-22T03:32:39;99084.09;;;15.93;39.71
16331;BME280;8275;48.206;16.340;2022-10-22T03:35:09;99093.19;;;15.93;39.87
16331;BME280;8275;48.206;16.340;2022-10-22T03:37:38;99086.03;;;15.92;39.49
16331;BME280;8275;48.206;16.340;2022-10-22T03:40:09;99095.44;;;15.91;39.81
16331;BME280;8275;48.206;16.340;2022-10-22T03:42:39;99096.03;;;15.88;39.75
16331;BME280;8275;48.206;16.340;2022-10-22T03:45:09;99107.66;;;15.85;39.95
16331;BME280;8275;48.206;16.340;2022-10-22T03:47:38;99088.91;;;15.82;39.79
16331;BME280;8275;48.206;16.340;2022-10-22T03:50:09;99074.38;;;15.77;39.85
16331;BME280;8275;48.206;16.340;2022-10-22T03:52:39;99063.59;;;15.75;39.74
16331;BME280;8275;48.206;16.340;2022-10-22T03:55:08;99070.00;;;15.71;39.86
16331;BME280;8275;48.206;16.340;2022-10-22T03:57:37;99079.69;;;15.68;39.78
16331;BME280;8275;48.206;16.340;2022-10-22T04:00:08;99088.06;;;15.63;39.85
16331;BME280;8275;48.206;16.340;2022-10-22T04:02:36;99093.03;;;15.61;39.97
16331;BME280;8275;48.206;16.340;2022-10-22T04:05:06;99091.66;;;15.59;40.02
16331;BME280;8275;48.206;16.340;2022-10-22T04:07:36;99092.28;;;15.56;39.90
16331;BME280;8275;48.206;16.340;2022-10-22T04:10:06;99092.84;;;15.53;39.99
16331;BME280;8275;48.206;16.340;2022-10-22T04:12:35;99112.47;;;15.51;40.11
16331;BME280;8275;48.206;16.340;2022-10-22T04:15:05;99110.28;;;15.48;40.25
16331;BME280;8275;48.206;16.340;2022-10-22T04:17:34;99119.72;;;15.47;39.91
16331;BME280;8275;48.206;16.340;2022-10-22T04:20:05;99112.00;;;15.44;40.13
16331;BME280;8275;48.206;16.340;2022-10-22T04:22:35;99113.06;;;15.43;39.96
16331;BME280;8275;48.206;16.340;2022-10-22T04:25:05;99108.69;;;15.42;40.26
16331;BME280;8275;48.206;16.340;2022-10-22T04:27:34;99103.16;;;15.42;40.29
16331;BME280;8275;48.206;16.340;2022-10-22T04:30:04;99096.81;;;15.41;40.65
16331;BME280;8275;48.206;16.340;2022-10-22T04:32:33;99099.03;;;15.44;40.33
16331;BME280;8275;48.206;16.340;2022-10-22T04:35:02;99095.66;;;15.48;40.22
16331;BME280;8275;48.206;16.340;2022-10-22T04:37:31;99097.53;;;15.52;40.41
16331;BME280;8275;48.206;16.340;2022-10-22T04:40:01;99098.63;;;15.56;40.50
16331;BME280;8275;48.206;16.340;2022-10-22T04:42:30;99102.97;;;15.62;40.46
16331;BME280;8275;48.206;16.340;2022-10-22T04:44:59;99101.25;;;15.66;40.27
16331;BME280;8275;48.206;16.340;2022-10-22T04:47:27;99097.63;;;15.71;40.37
16331;BME280;8275;48.206;16.340;2022-10-22T04:49:55;99099.81;;;15.74;40.39
16331;BME280;8275;48.206;16.340;2022-10-22T04:52:24;99109.97;;;15.78;40.57
16331;BME280;8275;48.206;16.340;2022-10-22T04:54:52;99111.84;;;15.83;40.44
16331;BME280;8275;48.206;16.340;2022-10-22T04:57:22;99113.72;;;15.87;40.27
16331;BME280;8275;48.206;16.340;2022-10-22T04:59:51;99104.84;;;15.90;40.41
16331;BME280;8275;48.206;16.340;2022-10-22T05:02:19;99103.13;;;15.94;40.40
16331;BME280;8275;48.206;16.340;2022-10-22T05:04:48;99114.72;;;15.96;40.44
16331;BME280;8275;48.206;16.340;2022-10-22T05:07:17;99108.59;;;15.99;40.48
16331;BME280;8275;48.206;16.340;2022-10-22T05:09:45;99108.00;;;16.02;40.27
16331;BME280;8275;48.206;16.340;2022-10-22T05:12:14;99109.34;;;16.05;40.25
16331;BME280;8275;48.206;16.340;2022-10-22T05:14:43;99114.28;;;16.08;40.26
16331;BME280;8275;48.206;16.340;2022-10-22T05:17:12;99100.16;;;16.09;40.41
16331;BME280;8275;48.206;16.340;2022-10-22T05:19:40;99094.06;;;16.12;40.09
16331;BME280;8275;48.206;16.340;2022-10-22T05:22:08;99100.09;;;16.14;40.19
16331;BME280;8275;48.206;16.340;2022-10-22T05:24:37;99107.28;;;16.15;40.22
16331;BME280;8275;48.206;16.340;2022-10-22T05:27:05;99106.47;;;16.15;40.21
16331;BME280;8275;48.206;16.340;2022-10-22T05:29:34;99118.34;;;16.15;40.29
16331;BME280;8275;48.206;16.340;2022-10-22T05:32:04;99118.34;;;16.15;40.10
16331;BME280;8275;48.206;16.340;2022-10-22T05:34:33;99123.25;;;16.18;40.13
16331;BME280;8275;48.206;16.340;2022-10-22T05:37:02;99134.56;;;16.22;40.16
16331;BME280;8275;48.206;16.340;2022-10-22T05:39:30;99133.44;;;16.23;40.02
16331;BME280;8275;48.206;16.340;2022-10-22T05:42:03;99125.69;;;16.25;40.21
16331;BME280;8275;48.206;16.340;2022-10-22T05:44:31;99125.97;;;16.24;40.02
16331;BME280;8275;48.206;16.340;2022-10-22T05:47:00;99129.56;;;16.24;39.84
16331;BME280;8275;48.206;16.340;2022-10-22T05:49:29;99130.66;;;16.23;40.17
16331;BME280;8275;48.206;16.340;2022-10-22T05:51:58;99131.75;;;16.27;40.17
16331;BME280;8275;48.206;16.340;2022-10-22T05:54:26;99120.38;;;16.29;39.93
16331;BME280;8275;48.206;16.340;2022-10-22T05:56:54;99109.25;;;16.34;40.03
16331;BME280;8275;48.206;16.340;2022-10-22T05:59:23;99116.66;;;16.38;40.07
16331;BME280;8275;48.206;16.340;2022-10-22T06:01:51;99114.94;;;16.42;39.97
16331;BME280;8275;48.206;16.340;2022-10-22T06:04:20;99118.72;;;16.46;39.78
16331;BME280;8275;48.206;16.340;2022-10-22T06:06:51;99125.34;;;16.50;40.05
16331;BME280;8275;48.206;16.340;2022-10-22T06:09:23;99130.28;;;16.53;40.13
16331;BME280;8275;48.206;16.340;2022-10-22T06:11:55;99137.69;;;16.58;39.97
16331;BME280;8275;48.206;16.340;2022-10-22T06:14:25;99143.75;;;16.60;39.79
16331;BME280;8275;48.206;16.340;2022-10-22T06:16:54;99143.97;;;16.63;39.88
16331;BME280;8275;48.206;16.340;2022-10-22T06:19:22;99146.16;;;16.66;39.83
16331;BME280;8275;48.206;16.340;2022-10-22T06:21:54;99160.78;;;16.67;39.87
16331;BME280;8275;48.206;16.340;2022-10-22T06:24:22;99153.31;;;16.67;39.92
16331;BME280;8275;48.206;16.340;2022-10-22T06:26:51;99150.47;;;16.72;39.98
16331;BME280;8275;48.206;16.340;2022-10-22T06:29:19;99145.19;;;16.76;39.63
16331;BME280;8275;48.206;16.340;2022-10-22T06:31:48;99158.91;;;16.81;39.68
16331;BME280;8275;48.206;16.340;2022-10-22T06:34:17;99159.97;;;16.85;39.56
16331;BME280;8275;48.206;16.340;2022-10-22T06:36:46;99173.72;;;16.90;39.55
16331;BME280;8275;48.206;16.340;2022-10-22T06:39:16;99158.47;;;16.93;39.64
16331;BME280;8275;48.206;16.340;2022-10-22T06:41:45;99163.41;;;16.96;39.54
16331;BME280;8275;48.206;16.340;2022-10-22T06:44:15;99162.81;;;16.99;39.48
16331;BME280;8275;48.206;16.340;2022-10-22T06:46:44;99162.44;;;17.05;39.48
16331;BME280;8275;48.206;16.340;2022-10-22T06:49:13;99162.88;;;17.12;39.33
16331;BME280;8275;48.206;16.340;2022-10-22T06:51:43;99168.75;;;17.24;39.42
16331;BME280;8275;48.206;16.340;2022-10-22T06:54:11;99183.75;;;17.37;39.47
16331;BME280;8275;48.206;16.340;2022-10-22T06:56:41;99195.19;;;17.49;39.17
16331;BME280;8275;48.206;16.340;2022-10-22T06:59:10;99193.59;;;17.62;39.16
16331;BME280;8275;48.206;16.340;2022-10-22T07:01:38;99205.03;;;17.74;38.89
16331;BME280;8275;48.206;16.340;2022-10-22T07:04:10;99216.03;;;17.79;38.57
16331;BME280;8275;48.206;16.340;2022-10-22T07:06:38;99214.28;;;17.83;38.56
16331;BME280;8275;48.206;16.340;2022-10-22T07:09:06;99209.47;;;17.88;38.71
16331;BME280;8275;48.206;16.340;2022-10-22T07:11:43;99222.94;;;17.95;38.66
16331;BME280;8275;48.206;16.340;2022-10-22T07:14:13;99235.16;;;18.07;38.89
16331;BME280;8275;48.206;16.340;2022-10-22T07:16:41;99244.31;;;18.21;38.66
16331;BME280;8275;48.206;16.340;2022-10-22T07:19:12;99256.56;;;18.34;38.71
16331;BME280;8275;48.206;16.340;2022-10-22T07:21:41;99260.19;;;18.48;38.54
16331;BME280;8275;48.206;16.340;2022-10-22T07:24:09;99257.19;;;18.58;38.56
16331;BME280;8275;48.206;16.340;2022-10-22T07:26:38;99269.53;;;18.66;38.58
16331;BME280;8275;48.206;16.340;2022-10-22T07:29:07;99286.41;;;18.69;38.42
16331;BME280;8275;48.206;16.340;2022-10-22T07:31:36;99280.44;;;18.76;38.42
16331;BME280;8275;48.206;16.340;2022-10-22T07:34:04;99278.16;;;18.78;37.90
16331;BME280;8275;48.206;16.340;2022-10-22T07:36:33;99280.44;;;18.76;38.04
16331;BME280;8275;48.206;16.340;2022-10-22T07:39:02;99279.78;;;18.79;38.12
16331;BME280;8275;48.206;16.340;2022-10-22T07:41:31;99273.63;;;18.82;38.15
16331;BME280;8275;48.206;16.340;2022-10-22T07:43:59;99268.81;;;18.87;38.19
16331;BME280;8275;48.206;16.340;2022-10-22T07:46:29;99277.00;;;18.92;38.27
16331;BME280;8275;48.206;16.340;2022-10-22T07:48:57;99292.72;;;18.97;38.29
16331;BME280;8275;48.206;16.340;2022-10-22T07:51:26;99287.56;;;19.04;38.27
16331;BME280;8275;48.206;16.340;2022-10-22T07:53:54;99302.00;;;19.06;38.19
16331;BME280;8275;48.206;16.340;2022-10-22T07:56:23;99313.19;;;19.01;38.26
16331;BME280;8275;48.206;16.340;2022-10-22T07:58:51;99315.25;;;18.96;38.43
16331;BME280;8275;48.206;16.340;2022-10-22T08:01:19;99295.91;;;18.90;38.47
16331;BME280;8275;48.206;16.340;2022-10-22T08:03:49;99288.53;;;18.86;38.64
16331;BME280;8275;48.206;16.340;2022-10-22T08:06:18;99291.63;;;18.84;38.67
16331;BME280;8275;48.206;16.340;2022-10-22T08:08:46;99291.94;;;18.83;38.88
16331;BME280;8275;48.206;16.340;2022-10-22T08:11:15;99291.22;;;18.77;38.89
16331;BME280;8275;48.206;16.340;2022-10-22T08:13:43;99280.44;;;18.76;39.06
16331;BME280;8275;48.206;16.340;2022-10-22T08:16:13;99270.97;;;18.77;39.05
16331;BME280;8275;48.206;16.340;2022-10-22T08:18:41;99262.53;;;18.82;39.19
16331;BME280;8275;48.206;16.340;2022-10-22T08:21:12;99255.72;;;18.88;39.35
16331;BME280;8275;48.206;16.340;2022-10-22T08:23:40;99267.72;;;18.97;39.28
16331;BME280;8275;48.206;16.340;2022-10-22T08:26:09;99274.22;;;19.06;39.31
16331;BME280;8275;48.206;16.340;2022-10-22T08:28:37;99287.97;;;19.11;39.13
16331;BME280;8275;48.206;16.340;2022-10-22T08:31:07;99271.31;;;19.11;39.10
16331;BME280;8275;48.206;16.340;2022-10-22T08:33:35;99271.81;;;19.13;39.07
16331;BME280;8275;48.206;16.340;2022-10-22T08:36:05;99271.03;;;19.13;39.07
16331;BME280;8275;48.206;16.340;2022-10-22T08:38:36;99269.38;;;19.12;38.80
16331;BME280;8275;48.206;16.340;2022-10-22T08:41:12;99265.25;;;19.09;39.23
16331;BME280;8275;48.206;16.340;2022-10-22T08:47:21;99277.53;;;18.95;40.13
16331;BME280;8275;48.206;16.340;2022-10-22T08:49:54;99282.38;;;18.89;40.53
16331;BME280;8275;48.206;16.340;2022-10-22T08:52:23;99278.88;;;18.83;40.86
16331;BME280;8275;48.206;16.340;2022-10-22T08:54:55;99287.94;;;18.75;41.12
16331;BME280;8275;48.206;16.340;2022-10-22T08:57:45;99283.22;;;18.62;41.64
16331;BME280;8275;48.206;16.340;2022-10-22T09:00:23;99277.88;;;18.52;42.42
16331;BME280;8275;48.206;16.340;2022-10-22T09:03:09;99288.09;;;18.38;42.99
16331;BME280;8275;48.206;16.340;2022-10-22T09:05:54;99285.63;;;18.23;43.66
16331;BME280;8275;48.206;16.340;2022-10-22T09:08:23;99281.38;;;18.12;44.52
16331;BME280;8275;48.206;16.340;2022-10-22T09:10:57;99282.16;;;17.99;45.46
16331;BME280;8275;48.206;16.340;2022-10-22T09:13:28;99277.63;;;17.89;45.89
16331;BME280;8275;48.206;16.340;2022-10-22T09:16:00;99261.72;;;17.81;46.52
16331;BME280;8275;48.206;16.340;2022-10-22T09:18:39;99260.97;;;17.76;46.71
16331;BME280;8275;48.206;16.340;2022-10-22T09:21:18;99257.16;;;17.72;47.56
16331;BME280;8275;48.206;16.340;2022-10-22T09:24:04;99263.00;;;17.70;47.45
16331;BME280;8275;48.206;16.340;2022-10-22T09:26:38;99268.75;;;17.74;47.75
16331;BME280;8275;48.206;16.340;2022-10-22T09:29:16;99269.28;;;17.76;48.14
16331;BME280;8275;48.206;16.340;2022-10-22T09:31:46;99270.03;;;17.81;47.95
16331;BME280;8275;48.206;16.340;2022-10-22T09:34:19;99271.56;;;17.87;47.84
16331;BME280;8275;48.206;16.340;2022-10-22T09:36:57;99280.63;;;17.93;47.96
16331;BME280;8275;48.206;16.340;2022-10-22T09:39:30;99277.44;;;17.99;47.95
16331;BME280;8275;48.206;16.340;2022-10-22T09:42:00;99280.16;;;18.04;47.76
16331;BME280;8275;48.206;16.340;2022-10-22T09:44:32;99275.63;;;18.08;47.79
16331;BME280;8275;48.206;16.340;2022-10-22T09:47:04;99275.22;;;18.15;47.79
16331;BME280;8275;48.206;16.340;2022-10-22T09:49:35;99287.88;;;18.21;47.90
16331;BME280;8275;48.206;16.340;2022-10-22T09:52:25;99300.00;;;18.25;48.02
16331;BME280;8275;48.206;16.340;2022-10-22T09:54:54;99297.84;;;18.36;48.00
16331;BME280;8275;48.206;16.340;2022-10-22T09:57:24;99294.66;;;18.42;48.10
16331;BME280;8275;48.206;16.340;2022-10-22T09:59:55;99286.78;;;18.49;48.10
16331;BME280;8275;48.206;16.340;2022-10-22T10:02:27;99292.25;;;18.54;48.16
16331;BME280;8275;48.206;16.340;2022-10-22T10:05:06;99289.88;;;18.61;48.17
16331;BME280;8275;48.206;16.340;2022-10-22T10:07:36;99287.53;;;18.68;48.11
16331;BME280;8275;48.206;16.340;2022-10-22T10:10:18;99286.09;;;18.71;48.16
16331;BME280;8275;48.206;16.340;2022-10-22T10:12:53;99296.25;;;18.75;48.32
16331;BME280;8275;48.206;16.340;2022-10-22T10:15:28;99299.22;;;18.79;48.31
16331;BME280;8275;48.206;16.340;2022-10-22T10:18:11;99294.41;;;18.84;48.36
16331;BME280;8275;48.206;16.340;2022-10-22T10:20:54;99291.81;;;18.88;48.43
16331;BME280;8275;48.206;16.340;2022-10-22T10:23:33;99296.97;;;18.95;48.56
16331;BME280;8275;48.206;16.340;2022-10-22T10:26:08;99298.16;;;19.02;48.60
16331;BME280;8275;48.206;16.340;2022-10-22T10:28:58;99299.41;;;19.10;48.90
16331;BME280;8275;48.206;16.340;2022-10-22T10:31:39;99298.53;;;19.23;49.01
16331;BME280;8275;48.206;16.340;2022-10-22T10:34:22;99294.97;;;19.36;49.01
16331;BME280;8275;48.206;16.340;2022-10-22T10:37:03;99296.34;;;19.47;49.19
16331;BME280;8275;48.206;16.340;2022-10-22T10:39:54;99300.34;;;19.54;49.26
16331;BME280;8275;48.206;16.340;2022-10-22T10:42:35;99292.75;;;19.69;49.43
16331;BME280;8275;48.206;16.340;2022-10-22T10:45:16;99291.69;;;19.78;49.69
16331;BME280;8275;48.206;16.340;2022-10-22T10:48:09;99281.16;;;19.89;49.91
16331;BME280;8275;48.206;16.340;2022-10-22T10:50:52;99287.63;;;20.06;49.84
16331;BME280;8275;48.206;16.340;2022-10-22T10:53:37;99295.41;;;20.18;49.82
16331;BME280;8275;48.206;16.340;2022-10-22T10:56:32;99279.81;;;20.31;50.05
16331;BME280;8275;48.206;16.340;2022-10-22T10:59:18;99278.38;;;20.42;50.10
16331;BME280;8275;48.206;16.340;2022-10-22T11:02:09;99284.97;;;20.54;50.17
16331;BME280;8275;48.206;16.340;2022-10-22T11:05:19;99275.38;;;20.69;49.92
16331;BME280;8275;48.206;16.340;2022-10-22T11:07:53;99269.84;;;20.86;49.88
16331;BME280;8275;48.206;16.340;2022-10-22T11:10:29;99278.38;;;20.98;49.94
16331;BME280;8275;48.206;16.340;2022-10-22T11:13:07;99268.28;;;21.11;49.61
16331;BME280;8275;48.206;16.340;2022-10-22T11:15:40;99256.81;;;21.21;49.87
16331;BME280;8275;48.206;16.340;2022-10-22T11:18:19;99273.09;;;21.27;49.52
16331;BME280;8275;48.206;16.340;2022-10-22T11:21:08;99261.44;;;21.34;49.59
16331;BME280;8275;48.206;16.340;2022-10-22T11:23:43;99245.53;;;21.43;49.41
16331;BME280;8275;48.206;16.340;2022-10-22T11:26:21;99253.25;;;21.54;49.43
16331;BME280;8275;48.206;16.340;2022-10-22T11:28:54;99256.00;;;21.72;49.41
16331;BME280;8275;48.206;16.340;2022-10-22T11:31:25;99254.06;;;21.89;49.08
16331;BME280;8275;48.206;16.340;2022-10-22T11:34:03;99256.97;;;22.01;48.97
16331;BME280;8275;48.206;16.340;2022-10-22T11:36:54;99257.09;;;22.13;48.58
16331;BME280;8275;48.206;16.340;2022-10-22T11:39:34;99261.69;;;22.18;48.15
16331;BME280;8275;48.206;16.340;2022-10-22T11:42:06;99257.25;;;22.25;48.27
16331;BME280;8275;48.206;16.340;2022-10-22T11:44:59;99258.72;;;22.23;47.80
16331;BME280;8275;48.206;16.340;2022-10-22T11:47:32;99255.59;;;22.24;47.73
16331;BME280;8275;48.206;16.340;2022-10-22T11:50:20;99253.47;;;22.21;47.72
16331;BME280;8275;48.206;16.340;2022-10-22T11:53:01;99257.06;;;22.22;47.44
16331;BME280;8275;48.206;16.340;2022-10-22T11:55:41;99249.88;;;22.21;47.35
16331;BME280;8275;48.206;16.340;2022-10-22T11:58:32;99252.34;;;22.14;47.48
16331;BME280;8275;48.206;16.340;2022-10-22T12:01:26;99247.75;;;22.09;47.12
16331;BME280;8275;48.206;16.340;2022-10-22T12:04:18;99250.91;;;22.08;47.17
16331;BME280;8275;48.206;16.340;2022-10-22T12:06:58;99252.53;;;22.09;47.50
16331;BME280;8275;48.206;16.340;2022-10-22T12:09:29;99250.56;;;22.09;47.39
16331;BME280;8275;48.206;16.340;2022-10-22T12:12:12;99245.81;;;22.10;47.28
16331;BME280;8275;48.206;16.340;2022-10-22T12:14:53;99246.28;;;22.12;47.33
16331;BME280;8275;48.206;16.340;2022-10-22T12:17:24;99245.59;;;22.15;46.99
16331;BME280;8275;48.206;16.340;2022-10-22T12:19:59;99246.44;;;22.15;47.22
16331;BME280;8275;48.206;16.340;2022-10-22T12:22:32;99252.19;;;22.19;46.80
16331;BME280;8275;48.206;16.340;2022-10-22T12:25:15;99247.06;;;22.21;46.92
16331;BME280;8275;48.206;16.340;2022-10-22T12:27:50;99250.00;;;22.24;46.86
16331;BME280;8275;48.206;16.340;2022-10-22T12:30:22;99248.53;;;22.27;46.56
16331;BME280;8275;48.206;16.340;2022-10-22T12:32:52;99251.47;;;22.30;46.37
16331;BME280;8275;48.206;16.340;2022-10-22T12:35:24;99261.97;;;22.33;46.21
16331;BME280;8275;48.206;16.340;2022-10-22T12:37:57;99246.03;;;22.34;46.48
16331;BME280;8275;48.206;16.340;2022-10-22T12:40:28;99244.56;;;22.36;46.08
16331;BME280;8275;48.206;16.340;2022-10-22T12:42:58;99245.03;;;22.38;46.44
16331;BME280;8275;48.206;16.340;2022-10-22T12:45:29;99243.06;;;22.39;46.02
16331;BME280;8275;48.206;16.340;2022-10-22T12:48:00;99241.41;;;22.38;45.44
16331;BME280;8275;48.206;16.340;2022-10-22T12:50:32;99244.41;;;22.33;45.63
16331;BME280;8275;48.206;16.340;2022-10-22T12:53:06;99239.16;;;22.31;45.37
16331;BME280;8275;48.206;16.340;2022-10-22T12:55:40;99243.75;;;22.27;45.18
16331;BME280;8275;48.206;16.340;2022-10-22T12:58:17;99243.13;;;22.22;45.28
16331;BME280;8275;48.206;16.340;2022-10-22T13:00:47;99251.69;;;22.17;45.27
16331;BME280;8275;48.206;16.340;2022-10-22T13:03:28;99246.28;;;22.12;45.27
16331;BME280;8275;48.206;16.340;2022-10-22T13:06:12;99245.97;;;22.05;45.09
16331;BME280;8275;48.206;16.340;2022-10-22T13:08:42;99243.69;;;21.98;44.77
16331;BME280;8275;48.206;16.340;2022-10-22T13:11:11;99243.03;;;21.93;45.24
16331;BME280;8275;48.206;16.340;2022-10-22T13:13:43;99238.31;;;21.85;44.96
16331;BME280;8275;48.206;16.340;2022-10-22T13:16:19;99239.59;;;21.79;45.25
16331;BME280;8275;48.206;16.340;2022-10-22T13:18:52;99240.28;;;21.76;45.17
16331;BME280;8275;48.206;16.340;2022-10-22T13:21:28;99247.16;;;21.69;45.28
16331;BME280;8275;48.206;16.340;2022-10-22T13:24:00;99236.97;;;21.65;45.63
16331;BME280;8275;48.206;16.340;2022-10-22T13:26:35;99241.09;;;21.59;45.49
16331;BME280;8275;48.206;16.340;2022-10-22T13:29:10;99247.81;;;21.58;45.72
16331;BME280;8275;48.206;16.340;2022-10-22T13:31:45;99243.41;;;21.57;45.62
16331;BME280;8275;48.206;16.340;2022-10-22T13:34:18;99254.88;;;21.55;45.62